Time;durP1;ratioP1;P1;durP2;ratioP2;P2;SDS_P1;SDS_P2;PMS_P1;PMS_P2;Temp;Humidity;BMP_temperature;BMP_pressure;BME280_temperature;BME280_humidity;BME280_pressure;Samples;Min_cycle;Max_cycle;Signal;HPM_P1;HPM_P2
2023/12/20 00:00:46;;;;;;;10.45;7.03;;;;;;;-0.65;86.42;95093.00;5111272;28;20035;-72
2023/12/20 00:03:11;;;;;;;10.10;6.85;;;;;;;-0.61;86.32;95092.03;5110956;28;20036;-72
2023/12/20 00:05:40;;;;;;;10.73;6.60;;;;;;;-0.53;85.94;95081.53;5111130;28;20049;-73
2023/12/20 00:08:06;;;;;;;11.50;7.43;;;;;;;-0.63;85.65;95086.13;5115038;27;20123;-73
2023/12/20 00:10:31;;;;;;;10.68;7.03;;;;;;;-0.54;85.19;95085.81;5124503;27;20563;-74
2023/12/20 00:12:57;;;;;;;11.13;7.30;;;;;;;-0.47;84.51;95083.88;5073520;28;20028;-73
2023/12/20 00:15:22;;;;;;;10.18;6.60;;;;;;;-0.54;84.48;95090.09;5073738;28;20359;-73
2023/12/20 00:17:47;;;;;;;11.38;7.25;;;;;;;-0.51;84.28;95070.38;5106961;28;20032;-74
2023/12/20 00:20:13;;;;;;;14.02;8.85;;;;;;;-0.28;83.40;95076.38;5110691;28;20424;-73
2023/12/20 00:22:38;;;;;;;20.50;11.25;;;;;;;-0.44;84.04;95075.28;5111841;28;20500;-73
2023/12/20 00:25:04;;;;;;;32.60;16.80;;;;;;;-0.32;83.78;95077.41;5109111;28;20410;-73
2023/12/20 00:27:29;;;;;;;35.97;21.20;;;;;;;-0.25;83.37;95072.03;5110439;28;20032;-73
2023/12/20 00:29:55;;;;;;;26.27;15.63;;;;;;;-0.25;82.74;95063.53;5110958;28;20031;-73
2023/12/20 00:32:20;;;;;;;18.10;11.60;;;;;;;-0.29;83.18;95060.22;5110360;28;20039;-73
2023/12/20 00:34:46;;;;;;;20.20;13.45;;;;;;;-0.17;81.67;95058.13;5109557;28;20019;-73
2023/12/20 00:37:11;;;;;;;18.75;11.60;;;;;;;-0.30;82.15;95060.31;5111475;28;20035;-73
2023/12/20 00:39:37;;;;;;;15.02;9.70;;;;;;;-0.37;82.37;95053.75;5093561;28;20058;-73
2023/12/20 00:42:02;;;;;;;10.52;6.88;;;;;;;-0.36;82.48;95046.03;5110376;28;20463;-73
2023/12/20 00:44:28;;;;;;;10.07;7.07;;;;;;;-0.42;83.19;95032.66;5108597;28;20398;-73
2023/12/20 00:58:31;;;;;;;22.90;17.02;;;;;;;-0.13;78.29;94976.25;5149308;27;20345;-73
2023/12/20 01:00:58;;;;;;;25.83;17.45;;;;;;;-0.06;78.74;95031.28;5142119;27;20050;-72
2023/12/20 01:03:23;;;;;;;26.77;16.88;;;;;;;-0.51;79.73;95009.13;5115781;28;20044;-71
2023/12/20 01:05:48;;;;;;;12.60;8.05;;;;;;;-0.42;81.85;95015.63;5115074;28;20528;-73
2023/12/20 01:08:14;;;;;;;50.17;30.33;;;;;;;-0.67;82.82;95020.78;5114861;28;20418;-74
2023/12/20 01:10:40;;;;;;;48.95;27.63;;;;;;;-1.03;83.23;95018.66;5126820;28;20042;-74
2023/12/20 01:13:05;;;;;;;58.00;36.05;;;;;;;-1.16;83.16;94997.81;5116868;27;20035;-74
2023/12/20 01:15:31;;;;;;;35.92;21.67;;;;;;;-0.97;81.65;95012.50;5107540;28;20546;-74
2023/12/20 01:17:58;;;;;;;15.85;9.75;;;;;;;-1.18;83.00;95011.50;5109627;28;20039;-74
2023/12/20 01:20:23;;;;;;;11.23;7.15;;;;;;;-1.13;84.35;95010.47;5123409;28;20087;-74
2023/12/20 01:22:49;;;;;;;17.42;10.30;;;;;;;-1.02;83.73;95019.47;5123379;27;20040;-74
2023/12/20 01:25:14;;;;;;;21.02;13.30;;;;;;;-1.12;83.26;95001.91;5111940;28;20401;-74
2023/12/20 01:27:40;;;;;;;23.52;15.75;;;;;;;-1.15;79.48;95002.03;5115352;27;20038;-74
2023/12/20 01:30:06;;;;;;;22.60;13.73;;;;;;;-1.27;79.59;95005.00;5122063;28;20477;-73
2023/12/20 01:32:31;;;;;;;30.42;18.33;;;;;;;-1.64;80.83;94998.59;5098860;28;20028;-74
2023/12/20 01:34:56;;;;;;;21.80;14.05;;;;;;;-1.42;79.75;94993.63;5110529;28;20039;-74
2023/12/20 01:37:23;;;;;;;28.77;18.02;;;;;;;-1.57;79.97;94989.84;5111401;28;20055;-74
2023/12/20 01:39:49;;;;;;;27.88;16.52;;;;;;;-1.87;80.46;94973.00;5108655;28;20028;-73
2023/12/20 01:42:14;;;;;;;55.03;35.00;;;;;;;-2.15;81.62;94966.22;5105231;28;20116;-72
2023/12/20 01:44:40;;;;;;;43.45;27.38;;;;;;;-1.73;78.58;94980.19;5113967;28;20520;-73
2023/12/20 01:47:05;;;;;;;34.53;22.38;;;;;;;-1.62;77.92;94973.88;5118943;27;20050;-74
2023/12/20 01:49:30;;;;;;;33.58;21.13;;;;;;;-1.61;77.50;94969.63;5121082;28;20034;-74
2023/12/20 01:51:56;;;;;;;26.88;17.08;;;;;;;-1.71;78.14;94968.25;5115183;27;20642;-73
2023/12/20 01:54:21;;;;;;;21.58;13.57;;;;;;;-1.84;79.15;94965.25;5118204;28;20032;-73
2023/12/20 01:56:47;;;;;;;38.45;21.90;;;;;;;-1.93;80.13;94956.19;5106907;28;20048;-74
2023/12/20 01:59:13;;;;;;;35.90;23.08;;;;;;;-2.13;80.21;94938.19;5098265;28;20038;-74
2023/12/20 02:01:38;;;;;;;30.33;21.10;;;;;;;-1.91;79.27;94951.91;5103436;28;20220;-74
2023/12/20 02:04:03;;;;;;;65.05;41.47;;;;;;;-2.50;79.97;94939.34;5098069;28;20027;-73
2023/12/20 02:06:30;;;;;;;59.33;37.58;;;;;;;-2.65;80.44;94952.50;5088619;28;20036;-73
2023/12/20 02:08:55;;;;;;;63.08;38.28;;;;;;;-2.61;80.47;94941.38;5103594;28;20528;-73
2023/12/20 02:11:21;;;;;;;72.57;41.97;;;;;;;-2.36;78.63;94931.28;5112745;28;20036;-74
2023/12/20 02:13:46;;;;;;;79.63;43.67;;;;;;;-2.32;78.61;94946.38;5111940;28;20063;-73
2023/12/20 02:16:12;;;;;;;57.95;36.47;;;;;;;-2.38;78.46;94923.69;5110083;28;20031;-73
2023/12/20 02:18:37;;;;;;;54.50;33.67;;;;;;;-2.53;79.36;94931.78;5091860;28;20042;-74
2023/12/20 02:21:05;;;;;;;35.88;23.55;;;;;;;-2.25;78.76;94937.69;5106403;28;20035;-73
2023/12/20 02:23:30;;;;;;;35.03;21.60;;;;;;;-2.19;78.62;94939.22;5092248;28;20032;-74
2023/12/20 02:25:55;;;;;;;24.00;16.02;;;;;;;-2.08;78.15;94938.88;5094174;28;20036;-74
2023/12/20 02:28:22;;;;;;;21.85;15.02;;;;;;;-2.16;79.18;94925.56;5102415;28;20466;-73
2023/12/20 02:30:49;;;;;;;21.25;14.88;;;;;;;-2.41;79.97;94926.31;5075624;28;20036;-74
2023/12/20 02:33:14;;;;;;;13.48;8.48;;;;;;;-2.28;79.94;94929.34;5106653;28;20080;-73
2023/12/20 02:35:40;;;;;;;15.80;10.63;;;;;;;-2.42;79.97;94924.66;5088190;28;20028;-73
2023/12/20 02:38:05;;;;;;;15.73;9.98;;;;;;;-2.17;79.75;94913.69;5105325;28;20035;-74
2023/12/20 02:40:30;;;;;;;9.32;6.65;;;;;;;-2.16;79.48;94911.13;5091894;28;20550;-73
2023/12/20 02:42:56;;;;;;;9.93;6.47;;;;;;;-2.16;79.85;94912.84;5093682;28;20036;-73
2023/12/20 02:45:21;;;;;;;9.82;6.35;;;;;;;-2.20;79.05;94914.66;5091207;28;20040;-73
2023/12/20 02:47:47;;;;;;;8.65;5.80;;;;;;;-2.16;79.32;94895.03;5097778;28;20032;-74
2023/12/20 02:50:12;;;;;;;9.90;5.90;;;;;;;-2.11;78.96;94899.06;5112100;28;20024;-73
2023/12/20 02:52:37;;;;;;;16.38;9.27;;;;;;;-2.10;79.02;94905.00;5110840;28;20038;-73
2023/12/20 02:55:03;;;;;;;12.63;7.63;;;;;;;-2.38;79.51;94860.06;5081491;28;20035;-73
2023/12/20 02:57:28;;;;;;;13.45;9.65;;;;;;;-2.11;79.54;94905.88;5093155;28;20509;-74
2023/12/20 02:59:54;;;;;;;14.65;8.30;;;;;;;-1.99;80.51;94904.66;5110176;28;20041;-73
2023/12/20 03:02:19;;;;;;;9.65;6.00;;;;;;;-1.98;80.50;94907.13;5094345;28;20043;-74
2023/12/20 03:04:45;;;;;;;9.32;5.90;;;;;;;-2.04;80.48;94897.16;5103389;28;20028;-73
2023/12/20 03:07:11;;;;;;;42.47;25.23;;;;;;;-2.53;81.19;94903.81;5099544;28;20036;-73
2023/12/20 03:09:37;;;;;;;44.45;25.70;;;;;;;-2.40;80.99;94912.72;5065104;28;20028;-73
2023/12/20 03:12:03;;;;;;;91.28;48.03;;;;;;;-2.63;81.00;94904.97;5103660;28;20046;-73
2023/12/20 03:14:28;;;;;;;96.07;54.88;;;;;;;-2.86;81.41;94903.94;5085421;28;20123;-73
2023/12/20 03:16:53;;;;;;;77.53;44.47;;;;;;;-3.09;82.44;94911.38;5092489;28;20081;-73
2023/12/20 03:19:19;;;;;;;71.82;37.45;;;;;;;-3.09;83.39;94912.22;5094816;28;20054;-73
2023/12/20 03:21:45;;;;;;;73.45;40.03;;;;;;;-2.93;83.58;94913.44;5065000;28;20039;-73
2023/12/20 03:24:10;;;;;;;68.82;37.28;;;;;;;-2.55;81.84;94903.00;5092272;28;20505;-74
2023/12/20 03:26:35;;;;;;;83.28;42.25;;;;;;;-2.81;82.31;94898.72;5110695;28;20454;-73
2023/12/20 03:29:01;;;;;;;65.25;38.72;;;;;;;-2.74;83.30;94895.94;5078140;28;20032;-73
2023/12/20 03:31:26;;;;;;;85.70;46.08;;;;;;;-2.79;83.23;94891.84;5068907;28;20032;-73
2023/12/20 03:33:53;;;;;;;69.88;42.58;;;;;;;-2.46;81.29;94897.63;5075510;28;20024;-74
2023/12/20 03:36:19;;;;;;;65.30;41.33;;;;;;;-2.60;81.40;94894.69;5093267;28;20043;-74
2023/12/20 03:38:44;;;;;;;93.50;44.40;;;;;;;-2.81;82.32;94883.47;5092088;28;20028;-74
2023/12/20 03:41:10;;;;;;;86.97;41.75;;;;;;;-2.75;83.04;94886.66;5075494;28;20089;-74
2023/12/20 03:43:35;;;;;;;75.97;41.47;;;;;;;-2.43;82.28;94884.00;5105405;28;20036;-74
2023/12/20 03:46:03;;;;;;;81.07;39.17;;;;;;;-2.48;82.83;94877.34;5085080;28;20031;-73
2023/12/20 03:48:29;;;;;;;73.07;39.40;;;;;;;-2.59;83.57;94881.06;5102556;28;20027;-74
2023/12/20 03:50:54;;;;;;;70.43;39.28;;;;;;;-2.50;83.75;94881.63;5093426;28;20537;-74
2023/12/20 03:53:19;;;;;;;76.55;39.45;;;;;;;-2.42;83.82;94878.88;5091693;28;20301;-73
2023/12/20 03:55:45;;;;;;;74.63;40.67;;;;;;;-2.34;82.71;94856.56;5090385;28;20058;-73
2023/12/20 03:58:10;;;;;;;77.50;36.40;;;;;;;-2.35;83.20;94865.06;5090311;28;20063;-73
2023/12/20 04:00:36;;;;;;;90.68;40.50;;;;;;;-2.59;84.01;94861.59;5090340;28;20024;-73
2023/12/20 04:03:01;;;;;;;125.20;52.65;;;;;;;-2.92;85.83;94856.63;5090392;28;20050;-73
2023/12/20 04:05:27;;;;;;;87.63;42.45;;;;;;;-2.75;86.54;94878.19;5108859;28;20035;-73
2023/12/20 04:07:52;;;;;;;90.90;43.80;;;;;;;-2.70;86.22;94836.47;5110652;28;20040;-74
2023/12/20 04:10:17;;;;;;;78.93;41.40;;;;;;;-2.45;84.85;94858.63;5093545;28;20032;-74
2023/12/20 04:12:43;;;;;;;74.72;38.47;;;;;;;-2.50;85.42;94868.09;5110606;28;20417;-73
2023/12/20 04:15:09;;;;;;;79.90;39.67;;;;;;;-2.61;85.90;94844.69;5110494;28;20020;-73
2023/12/20 04:17:36;;;;;;;78.32;40.88;;;;;;;-2.48;84.33;94848.50;5093702;28;20043;-74
2023/12/20 04:20:01;;;;;;;84.40;40.95;;;;;;;-2.54;84.53;94856.34;5110392;28;20509;-74
2023/12/20 04:22:27;;;;;;;69.50;33.65;;;;;;;-2.57;84.88;94856.44;5076382;28;20066;-74
2023/12/20 04:24:52;;;;;;;55.17;31.67;;;;;;;-2.72;85.90;94861.13;5110191;28;20473;-73
2023/12/20 04:27:17;;;;;;;44.17;24.70;;;;;;;-2.68;84.24;94850.84;5107762;28;20043;-74
2023/12/20 04:29:43;;;;;;;56.33;28.40;;;;;;;-2.64;84.00;94843.09;5101869;28;20042;-74
2023/12/20 04:32:08;;;;;;;67.68;30.23;;;;;;;-2.88;83.96;94847.19;5093272;28;20031;-74
2023/12/20 04:34:34;;;;;;;99.07;42.13;;;;;;;-3.22;84.90;94799.91;5110417;28;20024;-74
2023/12/20 04:37:01;;;;;;;108.07;49.47;;;;;;;-3.08;85.24;94832.53;5082660;28;20042;-74
2023/12/20 04:39:27;;;;;;;109.72;46.85;;;;;;;-2.66;86.18;94833.84;5089845;28;20479;-74
2023/12/20 04:41:52;;;;;;;52.83;27.15;;;;;;;-2.82;84.56;94798.69;5072691;28;20032;-74
2023/12/20 04:44:17;;;;;;;79.65;35.30;;;;;;;-2.87;85.24;94831.09;5089786;28;20081;-74
2023/12/20 04:46:43;;;;;;;83.13;42.92;;;;;;;-2.93;86.28;94824.44;5090234;28;20077;-74
2023/12/20 04:49:08;;;;;;;67.10;34.70;;;;;;;-2.57;86.44;94825.91;5102930;28;20028;-74
2023/12/20 04:51:34;;;;;;;76.20;37.72;;;;;;;-2.45;85.91;94828.09;5076210;28;20061;-74
2023/12/20 04:53:59;;;;;;;58.05;29.20;;;;;;;-2.58;84.88;94806.44;5111190;28;20027;-73
2023/12/20 04:56:25;;;;;;;89.35;38.88;;;;;;;-2.86;85.83;94827.66;5092705;28;20059;-73
2023/12/20 04:58:50;;;;;;;150.27;64.05;;;;;;;-3.10;88.15;94811.41;5108096;28;20031;-73
2023/12/20 05:01:16;;;;;;;111.35;51.70;;;;;;;-2.85;87.40;94819.13;5107976;28;20035;-73
2023/12/20 05:03:42;;;;;;;145.10;61.75;;;;;;;-2.83;87.13;94827.56;5097654;28;20040;-73
2023/12/20 05:06:07;;;;;;;158.55;68.65;;;;;;;-3.13;87.87;94811.50;5085232;28;20058;-73
2023/12/20 05:08:33;;;;;;;172.18;73.85;;;;;;;-2.92;88.62;94830.38;5085103;28;20497;-73
2023/12/20 05:10:58;;;;;;;159.50;66.43;;;;;;;-2.77;88.34;94821.44;5068659;28;20032;-73
2023/12/20 05:13:24;;;;;;;123.00;52.35;;;;;;;-3.00;88.76;94819.63;5085341;28;20031;-73
2023/12/20 05:15:49;;;;;;;100.57;46.60;;;;;;;-2.70;88.15;94815.31;5067669;28;20028;-73
2023/12/20 05:18:14;;;;;;;86.88;42.03;;;;;;;-2.65;85.92;94810.06;5083064;28;20024;-73
2023/12/20 05:20:40;;;;;;;78.50;41.10;;;;;;;-2.58;85.58;94806.44;5051359;28;20039;-73
2023/12/20 05:23:06;;;;;;;70.72;37.85;;;;;;;-2.67;85.26;94786.38;5067162;28;20032;-73
2023/12/20 05:25:31;;;;;;;60.33;32.78;;;;;;;-2.65;84.81;94802.41;5065870;28;20032;-74
2023/12/20 05:27:57;;;;;;;54.03;31.08;;;;;;;-2.78;85.42;94807.91;5069336;28;20044;-73
2023/12/20 05:30:22;;;;;;;52.00;30.85;;;;;;;-2.72;86.16;94794.16;5105043;28;20032;-74
2023/12/20 05:32:47;;;;;;;59.22;30.90;;;;;;;-2.87;85.67;94781.91;5087425;28;20032;-74
2023/12/20 05:35:13;;;;;;;55.90;29.48;;;;;;;-3.19;86.67;94793.91;5089145;28;20039;-74
2023/12/20 05:37:38;;;;;;;63.08;32.25;;;;;;;-3.34;88.24;94789.25;5093883;28;20066;-74
2023/12/20 05:40:23;;;;;;;96.47;40.53;;;;;;;-3.45;88.96;94794.69;5123044;27;20032;-74
2023/12/20 05:42:48;;;;;;;75.53;37.15;;;;;;;-3.41;89.34;94798.78;5090709;28;20474;-74
2023/12/20 05:45:14;;;;;;;50.13;28.73;;;;;;;-3.21;89.78;94785.50;5088668;28;20035;-74
2023/12/20 05:47:40;;;;;;;70.95;32.22;;;;;;;-3.06;88.11;94799.47;5087212;28;20028;-73
2023/12/20 05:50:05;;;;;;;79.40;37.42;;;;;;;-3.03;87.59;94791.75;5089059;28;20031;-74
2023/12/20 05:52:31;;;;;;;65.70;32.33;;;;;;;-3.10;87.60;94793.63;5122816;27;20477;-74
2023/12/20 05:54:57;;;;;;;60.80;29.23;;;;;;;-3.01;86.96;94780.66;5093058;28;20047;-74
2023/12/20 05:57:23;;;;;;;54.00;29.15;;;;;;;-2.94;86.58;94784.66;5088663;28;20040;-72
2023/12/20 05:59:48;;;;;;;52.40;27.02;;;;;;;-2.89;86.18;94781.16;5089718;28;20038;-73
2023/12/20 06:02:14;;;;;;;60.40;28.00;;;;;;;-3.17;86.99;94782.00;5089863;28;20039;-73
2023/12/20 06:04:42;;;;;;;56.40;28.67;;;;;;;-3.25;88.17;94778.84;5088949;28;20032;-73
2023/12/20 06:07:08;;;;;;;46.03;25.17;;;;;;;-2.98;87.90;94772.06;5075835;28;20411;-73
2023/12/20 06:09:33;;;;;;;39.35;23.73;;;;;;;-2.85;87.46;94778.44;5088736;28;20036;-73
2023/12/20 06:11:59;;;;;;;40.50;23.10;;;;;;;-2.89;86.61;94765.91;5073613;28;20047;-73
2023/12/20 06:14:24;;;;;;;53.25;26.02;;;;;;;-2.97;86.53;94774.59;5088462;28;20481;-73
2023/12/20 06:16:50;;;;;;;47.58;23.90;;;;;;;-3.00;85.89;94769.59;5074172;28;20031;-73
2023/12/20 06:19:15;;;;;;;44.38;24.67;;;;;;;-3.26;86.45;94747.53;5069777;28;20158;-73
2023/12/20 06:21:41;;;;;;;45.65;24.13;;;;;;;-3.09;86.32;94774.97;5086046;28;20077;-73
2023/12/20 06:24:06;;;;;;;44.25;25.17;;;;;;;-3.15;86.95;94791.25;5072279;28;20024;-73
2023/12/20 06:26:31;;;;;;;42.55;25.20;;;;;;;-3.15;87.89;94781.06;5091224;28;20036;-73
2023/12/20 06:28:57;;;;;;;72.85;37.33;;;;;;;-2.99;87.08;94785.69;5074463;28;20080;-73
2023/12/20 06:31:22;;;;;;;59.00;34.13;;;;;;;-2.92;86.47;94789.72;5090079;28;20390;-73
2023/12/20 06:33:49;;;;;;;54.50;29.80;;;;;;;-2.85;86.04;94786.06;5087594;28;20034;-73
2023/12/20 06:36:15;;;;;;;62.33;30.42;;;;;;;-2.97;86.12;94778.84;5070019;28;20050;-72
2023/12/20 06:38:42;;;;;;;52.60;30.85;;;;;;;-2.85;85.04;94788.63;5089315;28;20020;-73
2023/12/20 06:41:07;;;;;;;48.30;27.45;;;;;;;-2.99;85.73;94780.59;5088354;28;20047;-73
2023/12/20 06:43:33;;;;;;;46.70;26.45;;;;;;;-3.01;86.06;94774.72;5087534;28;20032;-73
2023/12/20 06:46:00;;;;;;;53.20;27.45;;;;;;;-3.08;86.39;94770.72;5068428;28;20500;-73
2023/12/20 06:48:25;;;;;;;52.85;29.88;;;;;;;-3.28;86.81;94745.91;5068895;28;20106;-73
2023/12/20 06:51:06;;;;;;;63.50;35.05;;;;;;;-3.34;87.20;94763.84;5086660;28;20024;-72
2023/12/20 06:53:32;;;;;;;56.33;30.73;;;;;;;-3.13;88.65;94760.69;5071009;28;20505;-73
2023/12/20 06:55:57;;;;;;;62.38;33.78;;;;;;;-2.97;88.32;94763.59;5085130;28;20032;-73
2023/12/20 06:58:23;;;;;;;53.40;32.45;;;;;;;-2.85;87.21;94745.41;5055940;28;20097;-73
2023/12/20 07:00:48;;;;;;;55.25;31.52;;;;;;;-2.90;86.09;94765.03;5071947;28;20028;-73
2023/12/20 07:03:14;;;;;;;53.20;29.35;;;;;;;-2.87;85.38;94756.50;5088844;28;20040;-73
2023/12/20 07:05:40;;;;;;;47.28;27.55;;;;;;;-2.98;85.40;94759.38;5087493;28;20043;-72
2023/12/20 07:08:06;;;;;;;48.28;27.40;;;;;;;-3.21;85.74;94744.84;5071536;28;20069;-73
2023/12/20 07:10:31;;;;;;;50.13;28.25;;;;;;;-3.09;85.79;94752.09;5087089;28;20035;-72
2023/12/20 07:12:57;;;;;;;53.90;30.00;;;;;;;-3.33;85.76;94730.81;5070812;28;20089;-72
2023/12/20 07:15:23;;;;;;;53.30;31.08;;;;;;;-3.41;86.94;94751.34;5089757;28;20031;-72
2023/12/20 07:17:48;;;;;;;57.70;29.10;;;;;;;-3.27;88.41;94738.22;5082151;28;20035;-74
2023/12/20 07:20:13;;;;;;;59.13;29.38;;;;;;;-3.23;88.12;94738.97;5086725;28;20460;-73
2023/12/20 07:22:39;;;;;;;54.33;26.00;;;;;;;-3.22;89.11;94736.38;5083292;28;20469;-73
2023/12/20 07:25:05;;;;;;;51.40;25.38;;;;;;;-3.30;89.72;94730.69;5090181;28;20043;-73
2023/12/20 07:27:30;;;;;;;63.03;29.10;;;;;;;-3.07;89.69;94736.78;5070163;28;20077;-73
2023/12/20 07:29:55;;;;;;;65.30;31.77;;;;;;;-2.77;88.80;94737.53;5071039;28;20031;-73
2023/12/20 07:32:21;;;;;;;58.85;28.77;;;;;;;-2.69;87.88;94725.41;5088138;28;20466;-74
2023/12/20 07:34:47;;;;;;;60.78;30.50;;;;;;;-2.75;88.39;94731.50;5096388;28;20483;-73
2023/12/20 07:37:13;;;;;;;60.53;30.92;;;;;;;-2.61;88.15;94740.41;5079889;28;20029;-73
2023/12/20 07:39:40;;;;;;;57.17;28.90;;;;;;;-2.49;87.78;94740.00;5086484;28;20019;-74
2023/12/20 07:42:05;;;;;;;51.42;27.15;;;;;;;-2.67;87.01;94721.09;5110543;28;20374;-74
2023/12/20 07:44:31;;;;;;;45.33;23.02;;;;;;;-2.62;87.13;94736.19;5081078;28;20035;-76
2023/12/20 07:46:57;;;;;;;42.10;23.80;;;;;;;-2.46;87.99;94732.25;5091037;28;20043;-76
2023/12/20 07:49:23;;;;;;;47.78;26.13;;;;;;;-2.53;88.23;94741.00;5093873;28;20035;-76
2023/12/20 07:51:48;;;;;;;59.65;28.52;;;;;;;-2.81;89.00;94733.44;5070869;28;20024;-76
2023/12/20 07:54:13;;;;;;;48.55;24.52;;;;;;;-2.83;89.85;94737.72;5070241;28;20304;-76
2023/12/20 07:56:39;;;;;;;50.10;26.25;;;;;;;-2.97;90.47;94720.38;5106197;28;20058;-76
2023/12/20 07:59:05;;;;;;;40.72;20.58;;;;;;;-2.93;91.07;94737.19;5069893;28;20028;-76
2023/12/20 08:01:31;;;;;;;45.03;20.65;;;;;;;-2.89;91.22;94730.31;5089884;28;20103;-76
2023/12/20 08:03:57;;;;;;;45.13;23.38;;;;;;;-2.89;91.52;94733.69;5073439;28;20032;-76
2023/12/20 08:06:22;;;;;;;51.80;23.90;;;;;;;-2.92;92.20;94718.53;5073301;28;20024;-75
2023/12/20 08:08:48;;;;;;;54.80;24.63;;;;;;;-2.93;92.95;94727.84;5090086;28;20039;-76
2023/12/20 08:11:13;;;;;;;52.63;26.40;;;;;;;-2.90;93.19;94683.69;5089293;28;20417;-75
2023/12/20 08:13:38;;;;;;;47.20;23.17;;;;;;;-2.49;93.11;94719.66;5091591;28;20078;-76
2023/12/20 08:16:04;;;;;;;48.13;26.15;;;;;;;-2.65;92.77;94715.94;5088879;28;20473;-76
2023/12/20 08:18:29;;;;;;;64.57;25.90;;;;;;;-2.72;92.95;94695.81;5073052;28;20044;-75
2023/12/20 08:20:55;;;;;;;57.25;27.42;;;;;;;-2.75;92.78;94695.91;5073233;28;20489;-76
2023/12/20 08:23:23;;;;;;;70.53;32.88;;;;;;;-2.48;92.27;94698.41;5072901;28;20087;-76
2023/12/20 08:25:49;;;;;;;59.33;28.75;;;;;;;-2.66;92.61;94691.41;5090058;28;20035;-76
2023/12/20 08:28:14;;;;;;;60.10;27.85;;;;;;;-2.64;93.24;94705.75;5072984;28;20489;-76
2023/12/20 08:30:40;;;;;;;58.42;28.20;;;;;;;-2.66;93.38;94704.13;5091138;28;20076;-76
2023/12/20 08:33:07;;;;;;;61.33;28.92;;;;;;;-2.66;93.55;94691.41;5089758;28;20513;-76
2023/12/20 08:35:33;;;;;;;65.32;29.98;;;;;;;-2.72;93.51;94669.56;5073184;28;20066;-76
2023/12/20 08:37:58;;;;;;;63.83;30.30;;;;;;;-2.70;93.40;94672.88;5072759;28;20402;-75
2023/12/20 08:40:23;;;;;;;53.28;27.50;;;;;;;-2.74;93.71;94654.34;5091151;28;20024;-76
2023/12/20 08:42:49;;;;;;;61.75;27.10;;;;;;;-2.63;93.92;94673.50;5072738;28;20024;-75
2023/12/20 08:45:14;;;;;;;53.97;27.08;;;;;;;-2.47;93.54;94677.19;5089725;28;20505;-75
2023/12/20 08:47:41;;;;;;;41.22;22.73;;;;;;;-2.58;93.80;94672.47;5089533;28;20024;-76
2023/12/20 08:50:07;;;;;;;57.83;25.42;;;;;;;-2.54;93.80;94679.09;5090890;28;20505;-76
2023/12/20 08:52:33;;;;;;;56.83;27.15;;;;;;;-2.29;93.78;94663.81;5089923;28;20020;-76
2023/12/20 08:54:58;;;;;;;58.65;27.65;;;;;;;-2.26;93.33;94673.91;5089858;28;20028;-75
2023/12/20 08:57:25;;;;;;;64.05;29.00;;;;;;;-2.23;92.85;94659.38;5089534;28;20067;-76
2023/12/20 08:59:50;;;;;;;57.55;26.70;;;;;;;-2.13;92.82;94665.81;5091309;28;20032;-76
2023/12/20 09:02:16;;;;;;;63.92;28.83;;;;;;;-2.25;92.82;94646.72;5089520;28;20455;-76
2023/12/20 09:04:42;;;;;;;70.10;34.03;;;;;;;-2.28;93.31;94634.13;5089531;28;20101;-76
2023/12/20 09:07:07;;;;;;;89.97;39.25;;;;;;;-2.21;93.08;94643.19;5072536;28;20493;-76
2023/12/20 09:09:33;;;;;;;64.82;29.70;;;;;;;-2.25;93.24;94637.38;5059368;28;20038;-76
2023/12/20 09:11:58;;;;;;;66.95;28.55;;;;;;;-2.26;93.41;94624.69;5110528;27;20078;-76
2023/12/20 09:14:24;;;;;;;58.50;27.80;;;;;;;-2.35;93.30;94613.13;5076700;28;20043;-75
2023/12/20 09:16:51;;;;;;;69.95;29.33;;;;;;;-2.19;93.35;94626.16;5093435;28;20043;-76
2023/12/20 09:19:17;;;;;;;52.25;26.30;;;;;;;-2.30;93.43;94608.72;5060321;28;20025;-76
2023/12/20 09:21:42;;;;;;;60.97;31.00;;;;;;;-2.26;93.70;94615.38;5076575;28;20024;-76
2023/12/20 09:24:08;;;;;;;66.10;29.40;;;;;;;-2.30;93.61;94598.53;5093485;28;20035;-76
2023/12/20 09:26:34;;;;;;;101.72;41.15;;;;;;;-2.35;93.51;94577.50;5094468;28;20032;-76
2023/12/20 09:28:59;;;;;;;66.82;29.25;;;;;;;-2.19;93.98;94576.97;5093396;28;20028;-76
2023/12/20 09:31:25;;;;;;;65.25;29.77;;;;;;;-2.17;93.49;94570.06;5076226;28;20028;-76
2023/12/20 09:33:50;;;;;;;68.28;31.63;;;;;;;-2.06;93.74;94573.09;5093151;28;20032;-76
2023/12/20 09:36:16;;;;;;;61.13;28.77;;;;;;;-2.14;93.92;94565.72;5093066;28;20028;-76
2023/12/20 09:38:42;;;;;;;113.95;45.72;;;;;;;-1.90;93.39;94558.03;5093186;28;20047;-76
2023/12/20 09:41:07;;;;;;;75.15;32.28;;;;;;;-2.08;93.26;94551.94;5093021;28;20028;-76
2023/12/20 09:43:33;;;;;;;68.20;32.10;;;;;;;-2.04;93.21;94548.38;5093166;28;20032;-75
2023/12/20 09:46:00;;;;;;;52.65;27.17;;;;;;;-1.61;92.64;94546.72;5075958;28;20081;-76
2023/12/20 09:48:25;;;;;;;67.30;28.48;;;;;;;-1.81;92.06;94534.78;5075840;28;20120;-76
2023/12/20 09:50:50;;;;;;;50.03;26.00;;;;;;;-1.51;92.36;94537.81;5075817;28;20028;-75
2023/12/20 09:53:16;;;;;;;61.50;31.77;;;;;;;-1.32;91.09;94547.25;5075849;28;20024;-76
2023/12/20 09:55:41;;;;;;;73.78;30.65;;;;;;;-1.54;91.66;94547.28;5075858;28;20032;-76
2023/12/20 09:58:08;;;;;;;80.10;36.47;;;;;;;-1.26;91.92;94547.00;5093920;28;20386;-75
2023/12/20 10:00:34;;;;;;;82.72;38.50;;;;;;;-1.02;91.05;94515.38;5075806;28;20032;-75
2023/12/20 10:03:00;;;;;;;62.75;32.30;;;;;;;-1.15;91.07;94525.25;5093806;28;20036;-75
2023/12/20 10:05:30;;;;;;;60.38;31.75;;;;;;;-1.06;91.02;94518.94;5093821;28;20054;-75
2023/12/20 10:07:55;;;;;;;62.42;30.40;;;;;;;-1.20;91.51;94508.50;5092370;28;20035;-75
2023/12/20 10:10:21;;;;;;;66.05;30.25;;;;;;;-1.23;90.91;94511.19;5092611;28;20016;-75
2023/12/20 10:13:04;;;;;;;58.45;29.15;;;;;;;-1.29;91.10;94491.06;5058698;28;20024;-75
2023/12/20 10:15:30;;;;;;;69.85;34.42;;;;;;;-1.15;91.12;94488.75;5092480;28;20028;-76
2023/12/20 10:17:56;;;;;;;67.80;33.58;;;;;;;-1.16;91.06;94499.84;5075668;28;20024;-75
2023/12/20 10:20:22;;;;;;;79.07;37.15;;;;;;;-1.21;90.95;94486.47;5091911;28;20032;-75
2023/12/20 10:22:48;;;;;;;58.33;28.27;;;;;;;-1.25;91.46;94477.31;5092047;28;20024;-75
2023/12/20 10:25:14;;;;;;;64.30;30.50;;;;;;;-0.87;91.19;94500.31;5075574;28;20032;-75
2023/12/20 10:27:39;;;;;;;57.25;32.75;;;;;;;-1.15;90.64;94486.19;5093119;28;20027;-75
2023/12/20 10:30:05;;;;;;;62.65;31.08;;;;;;;-1.20;91.19;94488.97;5075317;28;20077;-75
2023/12/20 10:32:31;;;;;;;62.58;31.00;;;;;;;-1.16;90.74;94487.09;5091993;28;20028;-75
2023/12/20 10:34:56;;;;;;;54.97;27.50;;;;;;;-1.24;91.29;94474.69;5075340;28;20040;-75
2023/12/20 10:37:22;;;;;;;53.92;28.13;;;;;;;-0.96;90.92;94473.50;5093160;28;20012;-75
2023/12/20 10:39:52;;;;;;;60.10;29.90;;;;;;;-1.12;91.29;94468.22;5092139;28;20039;-75
2023/12/20 10:42:21;;;;;;;64.07;31.70;;;;;;;-1.17;91.14;94465.03;5091795;28;20050;-75
2023/12/20 10:44:46;;;;;;;63.97;31.50;;;;;;;-1.06;90.96;94467.13;5075243;28;20455;-75
2023/12/20 10:47:12;;;;;;;72.53;34.08;;;;;;;-1.21;91.26;94450.78;5074729;28;20032;-75
2023/12/20 10:49:37;;;;;;;76.15;34.97;;;;;;;-1.32;91.40;94433.41;5074983;28;20031;-75
2023/12/20 10:52:03;;;;;;;80.72;38.28;;;;;;;-1.08;91.96;94453.66;5074672;28;20028;-75
2023/12/20 10:54:29;;;;;;;65.55;29.75;;;;;;;-0.95;91.42;94434.34;5074967;28;20060;-75
2023/12/20 10:56:54;;;;;;;60.67;29.95;;;;;;;-0.90;90.35;94423.03;5092657;28;20048;-75
2023/12/20 10:59:20;;;;;;;72.78;32.85;;;;;;;-0.95;90.92;94436.88;5074869;28;20040;-75
2023/12/20 11:01:45;;;;;;;61.17;32.22;;;;;;;-0.92;91.05;94429.09;5074598;28;20081;-75
2023/12/20 11:04:13;;;;;;;61.90;33.80;;;;;;;-0.65;91.44;94434.69;5058018;28;20047;-75
2023/12/20 11:06:51;;;;;;;68.90;32.67;;;;;;;-0.93;91.38;94407.88;5057932;28;20023;-75
2023/12/20 11:09:24;;;;;;;70.15;33.05;;;;;;;-0.84;91.61;94421.13;5074879;28;20093;-75
2023/12/20 11:12:47;;;;;;;66.43;34.15;;;;;;;-0.90;91.16;94397.53;5091252;28;20020;-75
2023/12/20 11:15:12;;;;;;;68.95;31.33;;;;;;;-0.79;90.94;94399.59;5066498;28;20033;-75
2023/12/20 11:17:39;;;;;;;89.63;40.38;;;;;;;-0.65;90.26;94395.63;5066315;28;20603;-75
2023/12/20 11:20:05;;;;;;;83.20;38.50;;;;;;;-0.77;90.96;94397.00;5069070;28;20039;-75
2023/12/20 11:22:31;;;;;;;81.70;38.15;;;;;;;-0.88;91.37;94389.00;5091033;28;20059;-75